« Back
NWS Peachtree City, Ga » Text Product » ATL Terminal Aerodrome Forecast


Printer-friendly Version
Current Version              Previous Versions:   1  2  3  4  5  6  7  8  9  

Terminal Aerodrome Forecast

256
FTUS42 KFFC 020153 AAA
TAFATL
TAF AMD
KATL 020153Z 0202/0306 VRB03KT P6SM SCT250
     FM021500 35004KT P6SM SCT035 SCT250
     FM021800 32006KT P6SM BKN045
     FM030000 34003KT P6SM SCT050=

USA.gov is the U.S. government's official web portal to all federal, state and local government web resources and services.